Terminal Aerodrome Forecast
Issued by NWS

Home | Current Version | Previous Version | Text Only | Print | Product List | Glossary On
Versions: 1 2 3 4 5 6 7 8 9 10 11 12 13
000
FTUS41 KPHI 240523
TAFPNE
TAF
KPNE 240523Z 2406/2506 20004KT P6SM FEW250
     FM241400 20007KT P6SM BKN100
      TEMPO 2416/2418 4SM -RA OVC025
     FM241800 22011KT P6SM OVC050
     FM242300 22007KT P6SM SCT040 BKN090=

USA.gov is the U.S. government's official web portal to all federal, state and local government web resources and services.